Time;durP1;ratioP1;P1;durP2;ratioP2;P2;SDS_P1;SDS_P2;PMS_P1;PMS_P2;Temp;Humidity;BMP_temperature;BMP_pressure;BME280_temperature;BME280_humidity;BME280_pressure;Samples;Min_cycle;Max_cycle;Signal;HPM_P1;HPM_P2
2022/06/16 04:17:01;;;;;;;;;;;;;;;25.00;57.20;97090.06;4225659;27;10310;-70
2022/06/16 04:19:05;;;;;;;;;;;;;;;25.29;56.76;97103.75;4228981;28;5621;-72
2022/06/16 04:21:10;;;;;;;;;;;;;;;25.49;56.11;97092.00;4230082;28;6559;-71
2022/06/16 04:23:13;;;;;;;;;;;;;;;25.67;55.90;97096.72;4231544;28;5716;-71
2022/06/16 04:25:17;;;;;;;;;;;;;;;25.81;55.12;97095.00;4229821;28;5720;-72
2022/06/16 04:27:20;;;;;;;;;;;;;;;25.93;55.14;97097.34;4230796;28;6286;-71
2022/06/16 04:29:24;;;;;;;;;;;;;;;26.02;54.81;97101.06;4212630;28;5750;-72
2022/06/16 04:31:28;;;;;;;;;;;;;;;26.08;54.19;97101.84;4231818;28;6457;-71
2022/06/16 04:33:32;;;;;;;;;;;;;;;26.16;54.11;97100.38;4231634;28;5734;-72
2022/06/16 04:35:35;;;;;;;;;;;;;;;26.20;53.89;97096.03;4213331;28;5695;-73
2022/06/16 04:37:38;;;;;;;;;;;;;;;26.22;53.19;97094.66;4230072;28;5735;-72
2022/06/16 04:39:41;;;;;;;;;;;;;;;26.25;53.08;97104.09;4213577;28;5567;-72
2022/06/16 04:41:51;;;;;;;;;;;;;;;26.30;52.96;97106.78;4231523;28;5616;-72
2022/06/16 04:43:54;;;;;;;;;;;;;;;26.37;52.57;97115.38;4225696;28;5656;-73
2022/06/16 04:46:11;;;;;;;;;;;;;;;26.37;52.40;97107.25;4211810;28;5651;-73
2022/06/16 04:48:38;;;;;;;;;;;;;;;26.44;52.10;97107.75;4230460;28;5628;-74
2022/06/16 04:50:49;;;;;;;;;;;;;;;26.46;51.64;97108.25;4228602;28;6290;-75
2022/06/16 04:52:54;;;;;;;;;;;;;;;26.47;51.79;97114.47;4229722;28;5628;-74
2022/06/16 04:55:01;;;;;;;;;;;;;;;26.50;51.34;97119.31;4205539;28;5760;-73
2022/06/16 04:57:14;;;;;;;;;;;;;;;26.46;51.52;97116.38;4229341;28;5827;-74
2022/06/16 04:59:24;;;;;;;;;;;;;;;26.47;50.94;97118.00;4219738;28;5620;-73
2022/06/16 05:01:27;;;;;;;;;;;;;;;26.53;51.04;97127.72;4225080;28;5707;-73
2022/06/16 05:03:30;;;;;;;;;;;;;;;26.55;50.68;97125.50;4216955;28;5779;-73
2022/06/16 05:05:35;;;;;;;;;;;;;;;26.57;50.78;97125.22;4224302;28;5882;-72
2022/06/16 05:07:38;;;;;;;;;;;;;;;26.59;50.54;97133.88;4222264;28;5624;-73
2022/06/16 05:09:41;;;;;;;;;;;;;;;26.62;50.48;97131.41;4224256;28;5636;-72
2022/06/16 05:11:44;;;;;;;;;;;;;;;26.63;50.07;97127.59;4229418;28;5637;-73
2022/06/16 05:13:47;;;;;;;;;;;;;;;26.66;49.89;97137.06;4218481;28;5633;-72
2022/06/16 05:15:54;;;;;;;;;;;;;;;26.68;49.77;97130.25;4227696;28;5649;-74
2022/06/16 05:17:57;;;;;;;;;;;;;;;26.73;49.73;97131.28;4214176;28;5859;-73
2022/06/16 05:20:00;;;;;;;;;;;;;;;26.75;49.68;97129.09;4204152;28;5640;-72
2022/06/16 05:22:06;;;;;;;;;;;;;;;26.81;49.41;97134.16;4213449;28;5704;-72
2022/06/16 05:24:10;;;;;;;;;;;;;;;26.86;49.56;97136.03;4214285;28;5625;-73
2022/06/16 05:26:12;;;;;;;;;;;;;;;26.92;49.32;97145.69;4216089;28;5772;-73
2022/06/16 05:28:15;;;;;;;;;;;;;;;26.99;49.17;97138.84;4217373;28;5624;-72
2022/06/16 05:30:19;;;;;;;;;;;;;;;27.07;48.82;97142.84;4208954;28;5619;-72
2022/06/16 05:32:22;;;;;;;;;;;;;;;27.19;48.54;97140.53;4202675;28;5635;-72
2022/06/16 05:34:25;;;;;;;;;;;;;;;27.27;48.35;97142.56;4184850;28;5828;-71
2022/06/16 05:36:28;;;;;;;;;;;;;;;27.36;47.91;97150.88;4201980;28;5624;-72
2022/06/16 05:38:32;;;;;;;;;;;;;;;27.42;47.78;97149.72;4202591;28;5627;-72
2022/06/16 05:40:35;;;;;;;;;;;;;;;27.53;47.47;97144.94;4205112;28;5632;-72
2022/06/16 05:42:38;;;;;;;;;;;;;;;27.64;47.21;97151.84;4219331;28;5792;-72
2022/06/16 05:44:41;;;;;;;;;;;;;;;27.74;47.12;97146.28;4219385;28;5613;-72
2022/06/16 05:46:44;;;;;;;;;;;;;;;27.85;47.05;97147.72;4219485;28;5624;-72
2022/06/16 05:48:47;;;;;;;;;;;;;;;27.95;47.02;97146.75;4219106;28;5641;-72
2022/06/16 05:50:50;;;;;;;;;;;;;;;28.06;46.82;97152.84;4219475;28;5616;-68
2022/06/16 05:52:54;;;;;;;;;;;;;;;28.18;46.52;97150.47;4219082;28;5707;-68
2022/06/16 05:54:58;;;;;;;;;;;;;;;28.30;46.53;97144.59;4219706;28;5688;-68
2022/06/16 05:57:01;;;;;;;;;;;;;;;28.38;46.50;97150.16;4219560;28;5609;-68
2022/06/16 05:59:04;;;;;;;;;;;;;;;28.42;46.40;97150.34;4217313;28;5715;-68
2022/06/16 06:01:14;;;;;;;;;;;;;;;28.45;46.43;97148.97;4209733;28;5625;-68
2022/06/16 06:03:17;;;;;;;;;;;;;;;28.49;46.35;97149.97;4219482;28;5676;-68
2022/06/16 06:05:20;;;;;;;;;;;;;;;28.56;46.20;97150.41;4214247;28;5428;-68
2022/06/16 06:07:23;;;;;;;;;;;;;;;28.59;46.15;97149.78;4187507;28;5644;-68
2022/06/16 06:16:36;;;;;;;;;;;;;;;28.57;45.38;97157.44;4200638;28;5631;-68
2022/06/16 06:18:39;;;;;;;;;;;;;;;28.61;45.35;97158.44;4219083;28;5700;-69
2022/06/16 06:20:42;;;;;;;;;;;;;;;28.67;45.19;97151.81;4201022;28;5647;-69
2022/06/16 06:22:45;;;;;;;;;;;;;;;28.72;44.89;97154.44;4218766;28;5613;-68
2022/06/16 06:24:50;;;;;;;;;;;;;;;28.77;44.93;97150.78;4203668;28;5803;-68
2022/06/16 06:26:56;;;;;;;;;;;;;;;28.77;44.75;97154.34;4201955;28;5755;-69
2022/06/16 06:28:59;;;;;;;;;;;;;;;28.78;44.48;97160.59;4201403;28;5739;-68
2022/06/16 06:31:02;;;;;;;;;;;;;;;28.81;44.60;97158.06;4184261;28;5651;-68
2022/06/16 06:33:06;;;;;;;;;;;;;;;28.87;44.28;97167.72;4202189;28;5736;-68
2022/06/16 06:35:09;;;;;;;;;;;;;;;28.90;44.29;97156.28;4184223;28;6324;-69
2022/06/16 06:37:14;;;;;;;;;;;;;;;28.94;44.30;97162.72;4203542;28;5683;-68
2022/06/16 06:39:17;;;;;;;;;;;;;;;28.98;44.17;97160.22;4205443;28;5627;-68
2022/06/16 06:41:22;;;;;;;;;;;;;;;29.00;43.96;97152.56;4202094;28;5057;-68
2022/06/16 06:43:27;;;;;;;;;;;;;;;29.04;44.01;97148.13;4201994;28;5647;-68
2022/06/16 06:45:30;;;;;;;;;;;;;;;29.07;43.93;97155.66;4202082;28;5786;-68
2022/06/16 06:47:33;;;;;;;;;;;;;;;29.08;43.70;97145.59;4201595;28;5619;-68
2022/06/16 06:49:36;;;;;;;;;;;;;;;29.11;43.70;97156.69;4202459;28;5605;-68
2022/06/16 06:51:39;;;;;;;;;;;;;;;29.12;43.52;97152.06;4194461;28;5781;-68
2022/06/16 06:53:43;;;;;;;;;;;;;;;29.15;43.34;97160.41;4185893;28;5654;-69
2022/06/16 06:55:47;;;;;;;;;;;;;;;29.21;43.09;97152.94;4218358;28;5802;-68
2022/06/16 06:57:52;;;;;;;;;;;;;;;29.25;43.01;97151.22;4200044;28;5731;-69
2022/06/16 06:59:56;;;;;;;;;;;;;;;29.31;42.66;97155.44;4218594;28;5620;-69
2022/06/16 07:01:59;;;;;;;;;;;;;;;29.36;42.67;97158.06;4218614;28;5733;-68
2022/06/16 07:04:05;;;;;;;;;;;;;;;29.38;42.58;97155.84;4217974;28;5612;-69
2022/06/16 07:06:08;;;;;;;;;;;;;;;29.35;42.59;97161.91;4199035;28;5639;-68
2022/06/16 07:08:11;;;;;;;;;;;;;;;29.33;42.52;97160.56;4205752;28;5695;-68
2022/06/16 07:10:15;;;;;;;;;;;;;;;29.29;42.39;97161.19;4205768;28;6301;-68
2022/06/16 07:12:22;;;;;;;;;;;;;;;29.26;42.49;97169.97;4217314;28;5616;-69
2022/06/16 07:14:29;;;;;;;;;;;;;;;29.22;42.39;97166.25;4201533;28;5719;-68
2022/06/16 07:16:35;;;;;;;;;;;;;;;29.20;42.35;97173.09;4200823;28;5639;-69
2022/06/16 07:18:40;;;;;;;;;;;;;;;29.13;42.20;97165.34;4201715;28;5644;-68
2022/06/16 07:20:43;;;;;;;;;;;;;;;29.07;42.37;97165.75;4201223;28;5628;-68
2022/06/16 07:22:47;;;;;;;;;;;;;;;28.93;42.14;97166.56;4201013;28;5711;-68
2022/06/16 07:24:50;;;;;;;;;;;;;;;28.77;42.27;97172.56;4204720;28;7865;-68
2022/06/16 07:26:53;;;;;;;;;;;;;;;28.65;42.27;97175.78;4217868;28;5616;-68
2022/06/16 07:28:59;;;;;;;;;;;;;;;28.61;42.28;97180.22;4217971;28;5744;-69
2022/06/16 07:31:02;;;;;;;;;;;;;;;28.61;42.52;97174.78;4217950;28;5605;-69
2022/06/16 07:33:27;;;;;;;;;;;;;;;28.57;42.21;97181.94;4218520;28;5699;-69
2022/06/16 07:35:31;;;;;;;;;;;;;;;28.51;42.08;97185.81;4217909;28;5625;-69
2022/06/16 07:37:34;;;;;;;;;;;;;;;28.48;42.18;97191.88;4217493;28;5605;-68
2022/06/16 07:39:38;;;;;;;;;;;;;;;28.46;42.37;97188.66;4217676;28;5612;-69
2022/06/16 07:41:41;;;;;;;;;;;;;;;28.45;42.33;97192.47;4217627;28;5625;-69
2022/06/16 07:43:44;;;;;;;;;;;;;;;28.37;42.38;97189.31;4217343;28;5600;-69
2022/06/16 07:45:49;;;;;;;;;;;;;;;28.32;42.48;97188.63;4217221;28;5620;-68
2022/06/16 07:47:52;;;;;;;;;;;;;;;28.32;42.48;97181.25;4217207;28;5847;-68
2022/06/16 07:49:57;;;;;;;;;;;;;;;28.32;42.62;97189.44;4216894;28;6272;-69
2022/06/16 07:52:01;;;;;;;;;;;;;;;28.32;42.73;97185.91;4217481;28;5653;-69
2022/06/16 07:54:05;;;;;;;;;;;;;;;28.30;42.83;97185.38;4213475;28;5624;-69
2022/06/16 07:56:08;;;;;;;;;;;;;;;28.27;42.54;97185.94;4217559;28;5625;-69
2022/06/16 07:58:11;;;;;;;;;;;;;;;28.27;42.55;97178.63;4216555;28;5633;-70
2022/06/16 08:00:18;;;;;;;;;;;;;;;28.24;42.63;97176.47;4216665;28;5621;-68
2022/06/16 08:02:21;;;;;;;;;;;;;;;28.22;42.64;97177.88;4216947;28;5616;-68
2022/06/16 08:04:27;;;;;;;;;;;;;;;28.19;42.41;97173.81;4216848;28;5806;-68
2022/06/16 08:06:33;;;;;;;;;;;;;;;28.19;42.42;97168.38;4212972;28;6084;-71
2022/06/16 08:08:36;;;;;;;;;;;;;;;28.22;42.53;97169.72;4211808;28;5699;-68
2022/06/16 08:10:39;;;;;;;;;;;;;;;28.23;42.43;97168.63;4198203;28;5707;-69
2022/06/16 08:12:43;;;;;;;;;;;;;;;28.20;42.57;97170.03;4211005;28;5616;-68
2022/06/16 08:14:47;;;;;;;;;;;;;;;28.14;42.58;97172.00;4215647;28;6585;-68
2022/06/16 08:16:51;;;;;;;;;;;;;;;28.14;42.62;97176.63;4202747;28;5830;-70
2022/06/16 08:18:54;;;;;;;;;;;;;;;28.14;42.52;97176.63;4200570;28;5627;-68
2022/06/16 08:20:57;;;;;;;;;;;;;;;28.15;42.62;97183.69;4214785;28;5609;-68
2022/06/16 08:23:02;;;;;;;;;;;;;;;28.19;42.52;97179.25;4216461;28;5712;-69
2022/06/16 08:25:06;;;;;;;;;;;;;;;28.18;42.53;97182.28;4216613;28;5625;-69
2022/06/16 08:27:10;;;;;;;;;;;;;;;28.17;42.56;97180.66;4204748;28;6205;-69
2022/06/16 08:29:17;;;;;;;;;;;;;;;28.12;42.67;97187.00;4198237;28;5731;-69
2022/06/16 08:31:22;;;;;;;;;;;;;;;28.13;42.48;97191.34;4217551;28;5634;-69
2022/06/16 08:33:29;;;;;;;;;;;;;;;28.14;42.56;97193.75;4216683;28;5613;-68
2022/06/16 08:35:32;;;;;;;;;;;;;;;28.17;42.45;97195.06;4207367;28;5851;-69
2022/06/16 08:37:36;;;;;;;;;;;;;;;28.19;42.52;97181.16;4201410;28;5770;-68
2022/06/16 08:39:42;;;;;;;;;;;;;;;28.22;42.42;97178.69;4216772;28;5633;-69
2022/06/16 08:41:49;;;;;;;;;;;;;;;28.25;42.34;97186.25;4216901;28;5628;-69
2022/06/16 08:44:03;;;;;;;;;;;;;;;28.27;42.59;97180.50;4216860;28;5608;-68
2022/06/16 08:46:08;;;;;;;;;;;;;;;28.28;42.54;97182.94;4207549;28;5794;-69
2022/06/16 08:48:26;;;;;;;;;;;;;;;28.33;42.37;97188.31;4217019;28;5676;-70
2022/06/16 08:50:34;;;;;;;;;;;;;;;28.35;42.15;97194.25;4216510;28;5624;-70
2022/06/16 08:52:46;;;;;;;;;;;;;;;28.39;42.42;97189.81;4218536;28;5624;-70
2022/06/16 08:55:03;;;;;;;;;;;;;;;28.45;42.21;97196.00;4199283;28;5745;-69
2022/06/16 08:57:13;;;;;;;;;;;;;;;28.50;41.99;97186.94;4220475;28;5636;-68
2022/06/16 08:59:30;;;;;;;;;;;;;;;28.54;41.86;97190.66;4219536;28;5613;-69
2022/06/16 09:01:36;;;;;;;;;;;;;;;28.56;41.99;97200.16;4220170;28;5612;-69
2022/06/16 09:03:45;;;;;;;;;;;;;;;28.59;41.90;97204.19;4219980;28;5789;-69
2022/06/16 09:05:57;;;;;;;;;;;;;;;28.60;41.84;97203.06;4217854;28;5833;-71
2022/06/16 09:08:14;;;;;;;;;;;;;;;28.63;41.86;97199.75;4213573;28;5631;-69
2022/06/16 09:10:27;;;;;;;;;;;;;;;28.65;41.89;97189.38;4203291;28;5672;-68
2022/06/16 09:12:50;;;;;;;;;;;;;;;28.73;41.79;97199.56;4203007;28;5658;-68
2022/06/16 09:15:16;;;;;;;;;;;;;;;28.79;41.45;97200.28;4202709;28;6317;-68
2022/06/16 09:17:33;;;;;;;;;;;;;;;28.84;41.64;97194.75;4202959;28;5856;-76
2022/06/16 09:19:55;;;;;;;;;;;;;;;28.88;41.40;97204.78;4206708;28;5605;-77
2022/06/16 09:22:14;;;;;;;;;;;;;;;28.93;41.59;97215.56;4219816;28;6345;-77
2022/06/16 09:24:42;;;;;;;;;;;;;;;28.99;41.33;97214.38;4216992;28;5628;-78
2022/06/16 09:26:52;;;;;;;;;;;;;;;29.09;41.13;97212.53;4219893;28;5636;-77
2022/06/16 09:29:01;;;;;;;;;;;;;;;29.14;41.11;97209.72;4220361;28;5613;-78
2022/06/16 09:31:13;;;;;;;;;;;;;;;29.18;40.87;97205.28;4203077;28;5648;-77
2022/06/16 09:33:21;;;;;;;;;;;;;;;29.22;40.98;97209.00;4203150;28;5616;-77
2022/06/16 09:35:29;;;;;;;;;;;;;;;29.22;41.06;97225.31;4203109;28;5718;-78
2022/06/16 09:37:44;;;;;;;;;;;;;;;29.21;41.04;97226.44;4208685;28;5738;-77
2022/06/16 09:39:53;;;;;;;;;;;;;;;29.17;41.05;97218.09;4218899;28;5609;-78
2022/06/16 09:44:34;;;;;;;;;;;;;;;29.11;41.14;97222.03;4202950;28;5620;-78
2022/06/16 09:46:42;;;;;;;;;;;;;;;29.10;40.88;97228.56;4203083;28;5655;-77
2022/06/16 09:48:56;;;;;;;;;;;;;;;29.11;41.14;97232.06;4216452;28;5613;-78
2022/06/16 09:51:06;;;;;;;;;;;;;;;29.14;41.02;97221.41;4217892;28;5605;-77
2022/06/16 09:53:17;;;;;;;;;;;;;;;29.19;40.92;97229.47;4207900;28;5723;-77
2022/06/16 09:55:29;;;;;;;;;;;;;;;29.25;40.94;97224.75;4203893;28;6424;-72
2022/06/16 09:57:41;;;;;;;;;;;;;;;29.35;40.69;97216.38;4216556;28;5671;-77
2022/06/16 09:59:48;;;;;;;;;;;;;;;29.41;40.76;97220.59;4207641;28;5726;-79
2022/06/16 10:01:58;;;;;;;;;;;;;;;29.48;40.80;97215.56;4217109;28;5696;-71
2022/06/16 10:04:03;;;;;;;;;;;;;;;29.55;40.56;97215.16;4213419;28;5704;-71
2022/06/16 10:06:33;;;;;;;;;;;;;;;29.59;40.63;97216.16;4211471;28;5625;-71
2022/06/16 10:08:44;;;;;;;;;;;;;;;29.65;40.44;97209.47;4131133;28;5690;-71
2022/06/16 10:10:55;;;;;;;;;;;;;;;29.70;40.37;97214.03;4103196;28;5660;-71
2022/06/16 10:13:07;;;;;;;;;;;;;;;29.72;40.36;97217.25;4111465;28;5646;-72
2022/06/16 10:15:14;;;;;;;;;;;;;;;29.73;40.48;97211.50;4116115;28;5754;-72
2022/06/16 10:17:22;;;;;;;;;;;;;;;29.72;40.53;97215.31;4118149;28;5645;-72
2022/06/16 10:19:37;;;;;;;;;;;;;;;29.77;40.43;97211.66;4092602;28;5752;-73
2022/06/16 10:21:41;;;;;;;;;;;;;;;29.83;40.55;97211.25;4106381;28;5694;-72
2022/06/16 10:23:50;;;;;;;;;;;;;;;29.83;40.50;97213.19;4126867;28;5639;-71
2022/06/16 10:25:55;;;;;;;;;;;;;;;29.78;40.49;97207.81;4126227;28;5091;-70
2022/06/16 10:28:21;;;;;;;;;;;;;;;29.76;40.64;97210.88;4117912;28;5658;-72
2022/06/16 10:30:27;;;;;;;;;;;;;;;29.75;40.67;97203.81;4112599;28;5653;-71
2022/06/16 10:32:38;;;;;;;;;;;;;;;29.75;40.48;97203.00;4116789;28;5650;-70
2022/06/16 10:34:42;;;;;;;;;;;;;;;29.78;40.57;97210.56;4116622;28;5673;-72
2022/06/16 10:36:54;;;;;;;;;;;;;;;29.83;40.50;97214.00;4110087;28;6447;-72
2022/06/16 10:39:09;;;;;;;;;;;;;;;29.87;40.53;97211.44;4126193;28;5642;-72
2022/06/16 10:41:29;;;;;;;;;;;;;;;29.90;40.57;97213.56;4216072;28;5621;-71
2022/06/16 10:43:39;;;;;;;;;;;;;;;29.94;40.40;97200.94;4211728;28;5717;-72
2022/06/16 10:45:43;;;;;;;;;;;;;;;29.99;40.29;97211.72;4199162;28;5758;-72
2022/06/16 10:47:50;;;;;;;;;;;;;;;30.03;40.17;97201.81;4212317;28;5735;-71
2022/06/16 10:49:53;;;;;;;;;;;;;;;30.03;40.37;97204.53;4196158;28;5698;-72
2022/06/16 10:52:01;;;;;;;;;;;;;;;30.06;40.29;97201.22;4218269;28;5707;-69
2022/06/16 10:54:28;;;;;;;;;;;;;;;30.09;40.48;97203.31;4204632;28;5658;-71
2022/06/16 10:56:31;;;;;;;;;;;;;;;30.12;40.46;97199.97;4201780;28;5640;-67
2022/06/16 10:58:50;;;;;;;;;;;;;;;30.12;40.65;97213.59;4206160;28;5715;-71
2022/06/16 11:01:04;;;;;;;;;;;;;;;30.08;40.84;97206.34;4216681;28;5653;-71
2022/06/16 11:03:16;;;;;;;;;;;;;;;30.04;40.99;97208.88;4218653;28;5624;-71
2022/06/16 11:05:20;;;;;;;;;;;;;;;30.03;41.20;97209.19;4217610;28;5616;-72
2022/06/16 11:07:26;;;;;;;;;;;;;;;30.01;40.87;97211.38;4208658;28;6314;-72
2022/06/16 11:09:33;;;;;;;;;;;;;;;30.01;41.30;97208.66;4201767;28;5750;-72
2022/06/16 11:11:42;;;;;;;;;;;;;;;30.04;41.33;97208.88;4200586;28;5640;-73
2022/06/16 11:13:49;;;;;;;;;;;;;;;30.02;41.48;97210.31;4217054;28;5613;-72
2022/06/16 11:15:53;;;;;;;;;;;;;;;30.01;41.72;97206.75;4216687;28;5688;-72
2022/06/16 11:17:59;;;;;;;;;;;;;;;30.02;41.72;97210.31;4216848;28;5735;-72
2022/06/16 11:20:13;;;;;;;;;;;;;;;30.03;42.01;97203.72;4213369;28;5712;-72
2022/06/16 11:22:19;;;;;;;;;;;;;;;30.03;42.08;97204.53;4198699;28;5632;-72
2022/06/16 11:24:27;;;;;;;;;;;;;;;30.01;42.10;97203.22;4217803;28;5699;-72
2022/06/16 11:26:33;;;;;;;;;;;;;;;30.00;42.21;97202.41;4215601;28;5089;-71
2022/06/16 11:28:45;;;;;;;;;;;;;;;30.03;42.13;97201.00;4217068;28;6308;-71
2022/06/16 11:30:59;;;;;;;;;;;;;;;30.06;41.90;97194.97;4217076;28;5831;-72
2022/06/16 11:35:50;;;;;;;;;;;;;;;30.11;41.81;97201.09;4199711;28;5856;-73
2022/06/16 11:38:02;;;;;;;;;;;;;;;30.12;42.00;97199.97;4201550;28;5628;-71
2022/06/16 11:40:19;;;;;;;;;;;;;;;30.13;42.13;97198.06;4202873;28;5711;-71
2022/06/16 11:42:50;;;;;;;;;;;;;;;30.17;42.07;97198.25;4198755;28;6392;-71
2022/06/16 11:45:02;;;;;;;;;;;;;;;30.22;42.03;97203.56;4213698;28;6389;-70
2022/06/16 11:47:26;;;;;;;;;;;;;;;30.29;41.94;97201.22;4215443;28;5864;-71
2022/06/16 11:49:39;;;;;;;;;;;;;;;30.35;41.68;97192.63;4209435;28;5625;-71
2022/06/16 11:51:51;;;;;;;;;;;;;;;30.34;41.91;97192.91;4217330;28;5700;-72
2022/06/16 11:54:08;;;;;;;;;;;;;;;30.31;41.74;97188.88;4213408;28;5092;-71
2022/06/16 11:56:17;;;;;;;;;;;;;;;30.32;41.76;97186.97;4208618;28;5760;-72
2022/06/16 11:58:37;;;;;;;;;;;;;;;30.34;41.82;97182.00;4214475;28;5656;-71
2022/06/16 12:00:47;;;;;;;;;;;;;;;30.33;41.57;97177.66;4214721;28;5660;-71
2022/06/16 12:03:27;;;;;;;;;;;;;;;30.29;41.41;97185.66;4212667;28;5751;-72
2022/06/16 12:05:38;;;;;;;;;;;;;;;30.27;41.25;97181.66;4215362;28;5170;-71
2022/06/16 12:08:06;;;;;;;;;;;;;;;30.27;41.31;97181.66;4206651;28;5703;-71
2022/06/16 12:10:17;;;;;;;;;;;;;;;30.29;41.31;97179.41;4210439;28;5859;-70
2022/06/16 12:12:31;;;;;;;;;;;;;;;30.32;41.16;97178.78;4201213;28;5639;-72
2022/06/16 12:14:44;;;;;;;;;;;;;;;30.32;41.30;97173.31;4200572;28;7707;-71
2022/06/16 12:16:55;;;;;;;;;;;;;;;30.34;41.51;97173.81;4168163;28;5645;-72
2022/06/16 12:19:13;;;;;;;;;;;;;;;30.35;41.13;97167.25;4178232;28;5866;-72
2022/06/16 12:21:21;;;;;;;;;;;;;;;30.35;41.49;97161.78;4182832;28;5913;-72
2022/06/16 12:23:34;;;;;;;;;;;;;;;30.38;41.44;97161.97;4182378;28;5694;-71
2022/06/16 12:25:47;;;;;;;;;;;;;;;30.40;41.05;97162.47;4176055;28;5586;-72
2022/06/16 12:28:00;;;;;;;;;;;;;;;30.44;41.30;97160.72;4180342;28;5747;-71
2022/06/16 12:30:09;;;;;;;;;;;;;;;30.53;41.05;97158.03;4177859;28;5574;-72
2022/06/16 12:32:25;;;;;;;;;;;;;;;30.56;40.98;97151.97;4185930;28;5701;-71
2022/06/16 12:34:37;;;;;;;;;;;;;;;30.56;40.85;97157.41;4183574;28;5778;-72
2022/06/16 12:36:48;;;;;;;;;;;;;;;30.60;40.67;97157.63;4170090;28;5711;-71
2022/06/16 12:38:58;;;;;;;;;;;;;;;30.68;41.05;97154.94;4171314;28;5787;-72
2022/06/16 12:41:08;;;;;;;;;;;;;;;30.74;41.34;97161.06;4173309;28;5750;-71
2022/06/16 12:43:18;;;;;;;;;;;;;;;30.75;41.18;97159.16;4171474;28;5829;-72
2022/06/16 12:45:27;;;;;;;;;;;;;;;30.73;41.49;97145.81;4181346;28;5708;-71
2022/06/16 12:47:38;;;;;;;;;;;;;;;30.70;41.52;97147.25;4181889;28;5667;-71
2022/06/16 12:49:48;;;;;;;;;;;;;;;30.69;41.67;97140.19;4175545;28;6488;-71
2022/06/16 12:51:58;;;;;;;;;;;;;;;30.73;41.51;97147.75;4179124;28;5715;-71
2022/06/16 12:54:06;;;;;;;;;;;;;;;30.76;41.60;97144.38;4175852;28;5837;-72
2022/06/16 12:56:13;;;;;;;;;;;;;;;30.71;41.43;97148.88;4179173;28;5698;-71
2022/06/16 12:58:23;;;;;;;;;;;;;;;30.72;41.46;97149.66;4181065;28;5694;-71
2022/06/16 13:00:32;;;;;;;;;;;;;;;30.74;41.58;97143.91;4182170;28;5762;-71
2022/06/16 13:02:40;;;;;;;;;;;;;;;30.75;41.13;97142.78;4184247;28;5754;-71
2022/06/16 13:04:46;;;;;;;;;;;;;;;30.75;41.36;97143.56;4183442;28;5682;-71
2022/06/16 13:06:50;;;;;;;;;;;;;;;30.78;41.28;97144.88;4176046;28;5868;-72
2022/06/16 13:08:56;;;;;;;;;;;;;;;30.83;41.26;97128.38;4180486;28;5938;-71
2022/06/16 13:11:02;;;;;;;;;;;;;;;30.81;41.17;97136.06;4180699;28;5804;-70
2022/06/16 13:13:07;;;;;;;;;;;;;;;30.80;41.05;97134.44;4176874;28;5695;-70
2022/06/16 13:15:15;;;;;;;;;;;;;;;30.82;41.21;97140.41;4179218;28;5746;-71
2022/06/16 13:17:27;;;;;;;;;;;;;;;30.80;41.33;97129.78;4212550;28;5624;-72
2022/06/16 13:19:35;;;;;;;;;;;;;;;30.84;40.73;97129.97;4212783;28;5100;-71
2022/06/16 13:21:42;;;;;;;;;;;;;;;30.89;40.62;97132.53;4211708;28;5783;-72
2022/06/16 13:23:55;;;;;;;;;;;;;;;30.93;40.66;97137.06;4214055;28;5640;-71
2022/06/16 13:26:18;;;;;;;;;;;;;;;30.95;40.44;97136.75;4218581;28;5263;-71
2022/06/16 13:28:30;;;;;;;;;;;;;;;30.92;40.45;97129.16;4219204;28;5616;-72
2022/06/16 13:30:40;;;;;;;;;;;;;;;30.93;40.47;97133.53;4217089;28;5823;-72
2022/06/16 13:33:02;;;;;;;;;;;;;;;30.94;40.17;97132.41;4217836;28;5818;-72
2022/06/16 13:35:29;;;;;;;;;;;;;;;30.94;40.23;97129.69;4219131;28;5672;-71
2022/06/16 13:37:44;;;;;;;;;;;;;;;30.97;39.87;97127.13;4217197;28;5617;-72
2022/06/16 13:39:58;;;;;;;;;;;;;;;30.98;40.15;97130.66;4202878;28;5639;-72
2022/06/16 13:42:03;;;;;;;;;;;;;;;30.96;40.03;97125.50;4205393;28;5811;-71
2022/06/16 13:44:13;;;;;;;;;;;;;;;30.99;39.85;97122.13;4202677;28;5688;-72
2022/06/16 13:46:16;;;;;;;;;;;;;;;31.04;39.59;97123.94;4205844;28;6495;-71
2022/06/16 13:48:32;;;;;;;;;;;;;;;31.05;39.41;97120.09;4211598;28;5807;-71
2022/06/16 13:50:44;;;;;;;;;;;;;;;31.06;39.64;97121.69;4184619;28;5752;-72
2022/06/16 13:53:02;;;;;;;;;;;;;;;31.08;39.31;97122.16;4207205;28;5652;-71
2022/06/16 13:55:31;;;;;;;;;;;;;;;31.20;38.90;97122.38;4216316;28;5771;-72
2022/06/16 13:57:34;;;;;;;;;;;;;;;31.17;39.47;97117.53;4211836;28;5700;-71
2022/06/16 13:59:44;;;;;;;;;;;;;;;31.15;38.84;97119.78;4207868;28;5631;-70
2022/06/16 14:02:11;;;;;;;;;;;;;;;31.21;38.94;97115.00;4210617;28;5628;-71
2022/06/16 14:04:16;;;;;;;;;;;;;;;31.19;38.65;97114.47;4211783;28;5751;-72
2022/06/16 14:06:27;;;;;;;;;;;;;;;31.20;38.60;97121.59;4199292;28;5748;-72
2022/06/16 14:08:32;;;;;;;;;;;;;;;31.21;38.43;97117.72;4210397;28;5889;-71
2022/06/16 14:10:44;;;;;;;;;;;;;;;31.24;38.54;97128.81;4213845;28;5625;-70
2022/06/16 14:13:17;;;;;;;;;;;;;;;31.30;38.14;97121.28;4215151;28;7709;-72
2022/06/16 14:15:45;;;;;;;;;;;;;;;31.28;38.13;97118.06;4197452;28;5726;-74
2022/06/16 14:18:13;;;;;;;;;;;;;;;31.20;38.01;97116.13;4199302;28;5695;-72
2022/06/16 14:20:22;;;;;;;;;;;;;;;31.16;38.10;97118.66;4191451;28;7777;-71
2022/06/16 14:22:29;;;;;;;;;;;;;;;31.14;37.91;97112.69;4197614;28;5691;-71
2022/06/16 14:25:06;;;;;;;;;;;;;;;31.25;37.48;97105.84;4187060;28;5743;-71
2022/06/16 14:27:13;;;;;;;;;;;;;;;31.35;37.18;97112.91;4127492;28;5800;-73
2022/06/16 14:29:19;;;;;;;;;;;;;;;31.37;37.43;97107.13;4133963;28;5871;-71
2022/06/16 14:31:27;;;;;;;;;;;;;;;31.33;37.02;97115.16;4131456;28;6708;-71
2022/06/16 14:33:38;;;;;;;;;;;;;;;31.32;37.20;97108.09;4131963;28;6767;-72
2022/06/16 14:35:50;;;;;;;;;;;;;;;31.32;37.42;97110.03;4132310;28;5835;-71
2022/06/16 14:38:00;;;;;;;;;;;;;;;31.35;37.19;97110.19;4130926;28;6521;-71
2022/06/16 14:40:10;;;;;;;;;;;;;;;31.36;36.65;97102.78;4129605;28;5819;-71
2022/06/16 14:42:17;;;;;;;;;;;;;;;31.34;36.48;97111.31;4133767;28;5853;-71
2022/06/16 14:44:25;;;;;;;;;;;;;;;31.35;36.68;97096.53;4115576;28;5915;-72
2022/06/16 14:46:37;;;;;;;;;;;;;;;31.39;36.52;97110.38;4133305;28;5854;-72
2022/06/16 14:48:44;;;;;;;;;;;;;;;31.43;36.29;97106.66;4125554;28;6740;-72
2022/06/16 14:50:51;;;;;;;;;;;;;;;31.49;36.36;97112.78;4120796;28;5981;-72
2022/06/16 14:53:05;;;;;;;;;;;;;;;31.44;35.96;97105.53;4115643;28;6664;-72
2022/06/16 14:55:12;;;;;;;;;;;;;;;31.47;35.89;97109.56;4128082;28;6034;-71
2022/06/16 14:57:20;;;;;;;;;;;;;;;31.54;35.74;97105.22;4127260;28;5911;-72
2022/06/16 14:59:26;;;;;;;;;;;;;;;31.60;35.38;97103.16;4127628;28;5902;-71
2022/06/16 15:01:35;;;;;;;;;;;;;;;31.60;35.24;97100.44;4129179;28;6817;-71
2022/06/16 15:03:43;;;;;;;;;;;;;;;31.63;35.48;97099.78;4168547;28;5878;-72
2022/06/16 15:05:47;;;;;;;;;;;;;;;31.59;35.42;97091.41;4190619;28;5909;-72
2022/06/16 15:07:51;;;;;;;;;;;;;;;31.59;35.29;97098.78;4194178;28;5782;-71
2022/06/16 15:09:56;;;;;;;;;;;;;;;31.66;35.14;97103.78;4191809;28;5790;-71
2022/06/16 15:12:03;;;;;;;;;;;;;;;31.73;34.92;97104.91;4189106;28;5797;-71
2022/06/16 15:14:10;;;;;;;;;;;;;;;31.78;34.72;97104.78;4182067;28;5723;-72
2022/06/16 15:18:34;;;;;;;;;;;;;;;31.87;34.28;97099.31;4179960;28;5769;-72
2022/06/16 15:20:39;;;;;;;;;;;;;;;31.89;34.35;97093.50;4197984;28;5872;-73
2022/06/16 15:22:46;;;;;;;;;;;;;;;31.93;34.00;97098.00;4198062;28;6347;-71
2022/06/16 15:24:55;;;;;;;;;;;;;;;31.92;34.07;97081.91;4201506;28;5783;-71
2022/06/16 15:26:58;;;;;;;;;;;;;;;31.94;33.82;97085.97;4206184;28;5743;-71
2022/06/16 15:29:08;;;;;;;;;;;;;;;31.96;33.68;97085.63;4208856;28;5806;-71
2022/06/16 15:31:13;;;;;;;;;;;;;;;31.97;33.94;97084.50;4214134;28;5717;-71
2022/06/16 15:38:11;;;;;;;;;;;;;;;31.96;33.67;97082.91;4159540;28;5870;-73
2022/06/16 15:40:15;;;;;;;;;;;;;;;31.90;33.65;97093.19;4160769;28;5879;-71
2022/06/16 15:42:22;;;;;;;;;;;;;;;31.88;33.60;97092.72;4158408;28;6793;-71
2022/06/16 15:44:30;;;;;;;;;;;;;;;31.88;33.38;97076.31;4161161;28;5875;-72
2022/06/16 15:46:38;;;;;;;;;;;;;;;31.88;33.26;97080.97;4161394;28;5852;-72
2022/06/16 15:48:43;;;;;;;;;;;;;;;31.87;33.34;97085.63;4156706;28;5864;-71
2022/06/16 15:50:46;;;;;;;;;;;;;;;31.91;32.85;97081.13;4159471;28;5856;-72
2022/06/16 15:52:55;;;;;;;;;;;;;;;31.92;32.94;97087.38;4160704;28;5868;-72
2022/06/16 15:55:01;;;;;;;;;;;;;;;31.91;32.69;97078.38;4161183;28;5920;-72